createdAt,value
2018-08-19T00:00:54.597Z,65.60
2018-08-19T00:03:24.296Z,65.60
2018-08-19T00:05:54.295Z,66.20
2018-08-19T00:08:24.005Z,66.60
2018-08-19T00:11:01.966Z,66.50
2018-08-19T00:13:31.784Z,66.10
2018-08-19T00:16:01.545Z,65.80
2018-08-19T00:18:31.343Z,64.80
2018-08-19T00:21:00.928Z,65.00
2018-08-19T00:23:35.901Z,64.60
2018-08-19T00:26:05.516Z,64.80
2018-08-19T00:28:35.197Z,64.60
2018-08-19T00:31:07.147Z,64.50
2018-08-19T00:33:36.789Z,64.70
2018-08-19T00:36:31.554Z,65.10
2018-08-19T00:39:01.150Z,65.00
2018-08-19T00:41:30.758Z,65.70
2018-08-19T00:44:00.429Z,65.30
2018-08-19T00:46:32.488Z,65.00
2018-08-19T00:49:02.493Z,65.40
2018-08-19T00:51:32.262Z,65.40
2018-08-19T00:54:01.843Z,65.70
2018-08-19T00:56:31.424Z,65.10
2018-08-19T00:59:01.031Z,65.80
2018-08-19T01:01:36.418Z,65.60
2018-08-19T01:04:08.720Z,65.70
2018-08-19T01:06:43.563Z,65.50
2018-08-19T01:09:13.257Z,66.10
2018-08-19T01:11:44.406Z,66.10
2018-08-19T01:14:15.934Z,65.90
2018-08-19T01:16:45.695Z,66.10
2018-08-19T01:19:16.347Z,67.00
2018-08-19T01:21:48.316Z,67.40
2018-08-19T01:24:17.939Z,67.60
2018-08-19T01:26:47.615Z,67.50
2018-08-19T01:29:27.004Z,67.90
2018-08-19T01:31:57.493Z,68.00
2018-08-19T01:34:27.161Z,68.30
2018-08-19T01:36:56.870Z,68.20
2018-08-19T01:39:26.473Z,67.30
2018-08-19T01:41:56.089Z,67.90
2018-08-19T01:44:25.713Z,67.80
2018-08-19T01:46:55.294Z,67.30
2018-08-19T01:49:24.950Z,67.50
2018-08-19T01:51:54.557Z,67.70
2018-08-19T01:54:24.906Z,67.50
2018-08-19T01:56:56.723Z,67.80
2018-08-19T01:59:32.391Z,67.50
2018-08-19T02:02:03.677Z,67.60
2018-08-19T02:04:35.557Z,67.70
2018-08-19T02:07:05.242Z,67.30
2018-08-19T02:09:34.980Z,67.60
2018-08-19T02:12:04.555Z,67.50
2018-08-19T02:14:34.109Z,67.70
2018-08-19T02:17:04.873Z,67.50
2018-08-19T02:19:34.500Z,67.60
2018-08-19T02:22:04.198Z,67.50
2018-08-19T02:24:33.853Z,67.40
2018-08-19T02:27:03.446Z,67.60
2018-08-19T02:29:36.192Z,67.70
2018-08-19T02:32:07.439Z,67.50
2018-08-19T02:34:39.026Z,67.70
2018-08-19T02:37:10.945Z,67.40
2018-08-19T02:39:44.746Z,67.60
2018-08-19T02:42:28.590Z,67.70
2018-08-19T02:45:05.885Z,67.90
2018-08-19T02:47:36.305Z,67.90
2018-08-19T02:50:06.622Z,67.90
2018-08-19T02:52:38.392Z,68.10
2018-08-19T02:55:08.952Z,67.70
2018-08-19T02:57:41.139Z,68.00
2018-08-19T03:00:12.416Z,67.70
2018-08-19T03:02:42.989Z,67.70
2018-08-19T03:05:14.439Z,67.90
2018-08-19T03:07:44.099Z,68.10
2018-08-19T03:10:15.215Z,68.30
2018-08-19T03:12:45.379Z,68.40
2018-08-19T03:15:16.221Z,68.30
2018-08-19T03:17:49.365Z,68.40
2018-08-19T03:20:19.071Z,68.30
2018-08-19T03:22:48.573Z,68.40
2018-08-19T03:25:18.172Z,68.70
2018-08-19T03:27:47.795Z,68.70
2018-08-19T03:30:17.367Z,69.00
2018-08-19T03:32:52.234Z,68.90
2018-08-19T03:35:22.427Z,68.90
2018-08-19T03:37:54.541Z,68.90
2018-08-19T03:40:26.330Z,69.00
2018-08-19T03:42:56.074Z,69.60
2018-08-19T03:45:25.798Z,69.70
2018-08-19T03:47:55.397Z,68.60
2018-08-19T03:50:26.820Z,69.00
2018-08-19T03:52:57.284Z,68.90
2018-08-19T03:55:32.841Z,69.00
2018-08-19T03:58:06.531Z,69.00
2018-08-19T04:00:38.125Z,71.70
2018-08-19T04:03:16.136Z,68.90
2018-08-19T04:05:54.704Z,68.80
2018-08-19T04:08:33.352Z,69.40
2018-08-19T04:11:06.522Z,69.20
2018-08-19T04:13:38.571Z,69.60
2018-08-19T04:16:09.477Z,69.20
2018-08-19T04:18:43.385Z,70.20
2018-08-19T04:21:15.181Z,69.50
2018-08-19T04:23:47.002Z,69.90
2018-08-19T04:26:16.625Z,70.90
2018-08-19T04:28:46.874Z,69.50
2018-08-19T04:31:21.545Z,69.60
2018-08-19T04:33:51.188Z,69.60
2018-08-19T04:36:22.020Z,70.10
2018-08-19T04:38:51.689Z,70.10
2018-08-19T04:41:21.382Z,69.90
2018-08-19T04:43:51.165Z,69.80
2018-08-19T04:46:20.728Z,70.00
2018-08-19T04:48:50.307Z,69.30
2018-08-19T04:51:19.906Z,69.10
2018-08-19T04:53:49.564Z,69.20
2018-08-19T04:56:19.381Z,69.00
2018-08-19T04:58:48.951Z,69.50
2018-08-19T05:01:18.572Z,69.50
2018-08-19T05:03:48.328Z,69.80
2018-08-19T05:06:17.889Z,69.50
2018-08-19T05:08:47.457Z,69.50
2018-08-19T05:11:17.056Z,69.60
2018-08-19T05:13:46.689Z,69.50
2018-08-19T05:16:16.278Z,70.10
2018-08-19T05:18:52.224Z,69.60
2018-08-19T05:21:22.005Z,70.10
2018-08-19T05:23:51.629Z,69.90
2018-08-19T05:26:21.291Z,69.90
2018-08-19T05:29:06.384Z,69.90
2018-08-19T05:31:39.593Z,70.00
2018-08-19T05:34:16.395Z,70.30
2018-08-19T05:36:49.495Z,69.60
2018-08-19T05:39:19.692Z,69.80
2018-08-19T05:42:00.159Z,69.50
2018-08-19T05:44:35.453Z,69.20
2018-08-19T05:47:09.587Z,69.60
2018-08-19T05:49:42.219Z,69.10
2018-08-19T05:52:16.435Z,69.30
2018-08-19T05:54:51.133Z,69.50
2018-08-19T05:57:20.920Z,68.90
2018-08-19T05:59:51.704Z,69.10
2018-08-19T06:02:33.617Z,69.60
2018-08-19T06:05:04.380Z,69.30
2018-08-19T06:07:34.089Z,69.60
2018-08-19T06:10:03.829Z,69.00
2018-08-19T06:12:33.500Z,69.60
2018-08-19T06:15:03.498Z,69.10
2018-08-19T06:17:33.067Z,68.80
2018-08-19T06:20:02.686Z,69.10
2018-08-19T06:22:37.445Z,69.10
2018-08-19T06:25:07.101Z,68.90
2018-08-19T06:27:41.579Z,68.70
2018-08-19T06:30:11.275Z,68.80
2018-08-19T06:32:40.969Z,68.30
2018-08-19T06:35:10.619Z,68.20
2018-08-19T06:37:40.253Z,68.20
2018-08-19T06:40:11.678Z,68.00
2018-08-19T06:42:41.277Z,68.60
2018-08-19T06:45:12.109Z,67.60
2018-08-19T06:47:41.870Z,67.30
2018-08-19T06:50:21.965Z,67.40
2018-08-19T06:52:51.813Z,67.30
2018-08-19T06:55:21.726Z,67.40
2018-08-19T06:57:51.412Z,68.10
2018-08-19T07:00:25.592Z,68.10
2018-08-19T07:02:56.118Z,67.50
2018-08-19T07:05:25.823Z,67.30
2018-08-19T07:07:55.403Z,67.40
2018-08-19T07:10:31.245Z,67.10
2018-08-19T07:13:08.233Z,68.40
2018-08-19T07:15:39.293Z,66.40
2018-08-19T07:18:11.854Z,67.40
2018-08-19T07:20:42.265Z,66.80
2018-08-19T07:23:12.353Z,66.00
2018-08-19T07:25:44.326Z,66.00
2018-08-19T07:28:15.165Z,65.20
2018-08-19T07:30:44.882Z,65.90
2018-08-19T07:33:14.988Z,66.70
2018-08-19T07:35:44.595Z,66.00
2018-08-19T07:38:14.201Z,65.60
2018-08-19T07:40:43.813Z,65.40
2018-08-19T07:43:13.486Z,65.40
2018-08-19T07:45:43.069Z,66.80
2018-08-19T07:48:12.772Z,66.50
2018-08-19T07:50:42.373Z,66.00
2018-08-19T07:53:12.012Z,65.60
2018-08-19T07:55:41.536Z,64.60
2018-08-19T07:58:11.185Z,64.10
2018-08-19T08:00:41.489Z,63.60
2018-08-19T08:03:11.348Z,64.10
2018-08-19T08:05:46.141Z,64.60
2018-08-19T08:08:15.751Z,63.30
2018-08-19T08:10:47.601Z,63.00
2018-08-19T08:13:17.455Z,64.50
2018-08-19T08:15:52.097Z,62.90
2018-08-19T08:18:21.837Z,63.50
2018-08-19T08:20:57.392Z,63.60
2018-08-19T08:23:28.491Z,64.90
2018-08-19T08:25:58.042Z,62.60
2018-08-19T08:28:28.951Z,62.30
2018-08-19T08:31:01.590Z,63.30
2018-08-19T08:33:31.268Z,63.70
2018-08-19T08:36:00.824Z,61.90
2018-08-19T08:38:30.534Z,63.70
2018-08-19T08:41:00.074Z,61.80
2018-08-19T08:43:29.705Z,61.20
2018-08-19T08:45:59.374Z,61.70
2018-08-19T08:48:29.342Z,62.50
2018-08-19T08:50:58.894Z,62.90
2018-08-19T08:53:34.682Z,61.70
2018-08-19T08:56:04.990Z,62.70
2018-08-19T08:58:35.898Z,62.20
2018-08-19T09:01:06.045Z,62.80
2018-08-19T09:03:36.690Z,63.80
2018-08-19T09:06:15.752Z,63.70
2018-08-19T09:08:45.322Z,61.10
2018-08-19T09:11:15.684Z,61.40
2018-08-19T09:13:45.548Z,61.40
2018-08-19T09:16:16.029Z,60.30
2018-08-19T09:18:45.663Z,63.90
2018-08-19T09:21:15.764Z,59.90
2018-08-19T09:23:45.567Z,60.50
2018-08-19T09:26:15.450Z,62.00
2018-08-19T09:28:45.108Z,60.30
2018-08-19T09:31:14.805Z,61.60
2018-08-19T09:33:44.362Z,61.20
2018-08-19T09:36:13.986Z,59.20
2018-08-19T09:38:43.588Z,57.50
2018-08-19T09:41:13.204Z,57.70
2018-08-19T09:43:42.824Z,58.30
2018-08-19T09:46:12.352Z,58.10
2018-08-19T09:48:42.039Z,58.10
2018-08-19T09:51:16.233Z,57.40
2018-08-19T09:53:46.273Z,58.00
2018-08-19T09:56:15.972Z,57.70
2018-08-19T09:58:51.565Z,58.00
2018-08-19T10:01:26.412Z,58.70
2018-08-19T10:03:55.948Z,58.20
2018-08-19T10:06:27.089Z,57.40
2018-08-19T10:08:56.622Z,57.70
2018-08-19T10:11:26.631Z,59.60
2018-08-19T10:14:00.245Z,58.60
2018-08-19T10:16:42.824Z,56.60
2018-08-19T10:19:13.414Z,56.40
2018-08-19T10:21:43.236Z,56.60
2018-08-19T10:24:23.512Z,56.90
2018-08-19T10:26:53.116Z,57.30
2018-08-19T10:29:23.093Z,57.30
2018-08-19T10:31:55.041Z,57.10
2018-08-19T10:34:30.979Z,56.90
2018-08-19T10:37:01.400Z,56.70
2018-08-19T10:39:31.115Z,56.60
2018-08-19T10:42:17.244Z,56.40
2018-08-19T10:44:48.797Z,57.00
2018-08-19T10:47:20.344Z,56.00
2018-08-19T10:49:55.069Z,57.20
2018-08-19T10:52:30.543Z,57.70
2018-08-19T10:55:01.513Z,58.40
2018-08-19T10:57:32.420Z,57.10
2018-08-19T11:00:02.068Z,56.60
2018-08-19T11:02:32.151Z,55.90
2018-08-19T11:05:01.833Z,55.80
2018-08-19T11:07:31.429Z,56.40
2018-08-19T11:10:25.077Z,57.10
2018-08-19T11:12:57.578Z,56.70
2018-08-19T11:15:34.212Z,55.70
2018-08-19T11:18:17.406Z,56.50
2018-08-19T11:20:50.231Z,56.00
2018-08-19T11:23:22.928Z,54.50
2018-08-19T11:25:54.590Z,56.70
2018-08-19T11:28:37.213Z,56.90
2018-08-19T11:31:07.724Z,57.50
2018-08-19T11:33:42.124Z,57.70
2018-08-19T11:36:12.592Z,58.20
2018-08-19T11:38:43.114Z,55.00
2018-08-19T11:41:12.960Z,53.60
2018-08-19T11:43:43.884Z,55.50
2018-08-19T11:46:14.162Z,54.50
2018-08-19T11:48:44.147Z,56.30
2018-08-19T11:51:15.623Z,56.90
2018-08-19T11:53:45.318Z,54.90
2018-08-19T11:56:15.037Z,55.50
2018-08-19T11:58:47.593Z,56.10
2018-08-19T12:01:20.736Z,56.10
2018-08-19T12:04:03.720Z,54.30
2018-08-19T12:06:34.326Z,56.30
2018-08-19T12:09:06.248Z,55.10
2018-08-19T12:11:37.111Z,54.40
2018-08-19T12:14:09.870Z,54.60
2018-08-19T12:16:46.908Z,53.90
2018-08-19T12:19:21.886Z,54.50
2018-08-19T12:21:52.860Z,54.70
2018-08-19T12:24:37.356Z,54.00
2018-08-19T12:27:08.604Z,54.80
2018-08-19T12:29:39.271Z,56.70
2018-08-19T12:32:13.312Z,53.60
2018-08-19T12:34:49.207Z,53.20
2018-08-19T12:37:20.194Z,55.20
2018-08-19T12:39:50.044Z,53.70
2018-08-19T12:42:19.715Z,52.50
2018-08-19T12:44:59.451Z,54.10
2018-08-19T12:47:29.302Z,54.40
2018-08-19T12:50:01.293Z,52.20
2018-08-19T12:52:32.182Z,53.20
2018-08-19T12:55:05.938Z,53.00
2018-08-19T12:57:36.634Z,53.10
2018-08-19T13:00:32.347Z,51.90
2018-08-19T13:03:02.394Z,53.40
2018-08-19T13:05:34.682Z,52.90
2018-08-19T13:08:06.283Z,52.80
2018-08-19T13:10:48.388Z,52.90
2018-08-19T13:13:18.931Z,52.20
2018-08-19T13:15:48.728Z,52.50
2018-08-19T13:18:28.333Z,52.40
2018-08-19T13:21:04.098Z,52.20
2018-08-19T13:23:34.452Z,50.80
2018-08-19T13:26:04.172Z,50.50
2018-08-19T13:28:38.804Z,50.20
2018-08-19T13:31:08.482Z,51.60
2018-08-19T13:33:38.096Z,50.70
2018-08-19T13:36:08.742Z,51.30
2018-08-19T13:38:40.461Z,51.00
2018-08-19T13:41:10.069Z,51.10
2018-08-19T13:43:39.690Z,50.90
2018-08-19T13:46:09.334Z,50.40
2018-08-19T13:48:38.957Z,48.80
2018-08-19T13:51:08.980Z,50.00
2018-08-19T13:53:38.621Z,50.20
2018-08-19T13:56:08.244Z,50.50
2018-08-19T13:58:37.826Z,50.30
2018-08-19T14:01:07.373Z,50.30
2018-08-19T14:03:36.905Z,50.10
2018-08-19T14:06:06.734Z,50.20
2018-08-19T14:08:36.365Z,49.50
2018-08-19T14:11:06.128Z,50.30
2018-08-19T14:13:35.731Z,49.80
2018-08-19T14:16:05.399Z,49.70
2018-08-19T14:18:35.066Z,50.50
2018-08-19T14:21:04.732Z,50.50
2018-08-19T14:23:34.373Z,50.00
2018-08-19T14:26:03.994Z,49.60
2018-08-19T14:28:33.651Z,49.10
2018-08-19T14:31:03.341Z,49.60
2018-08-19T14:33:32.961Z,49.30
2018-08-19T14:36:02.637Z,47.70
2018-08-19T14:38:32.389Z,49.20
2018-08-19T14:41:02.116Z,48.00
2018-08-19T14:43:31.940Z,48.10
2018-08-19T14:46:01.828Z,48.30
2018-08-19T14:48:31.704Z,48.80
2018-08-19T14:51:01.293Z,47.90
2018-08-19T14:53:30.912Z,48.60
2018-08-19T14:56:20.381Z,48.50
2018-08-19T14:58:50.014Z,48.70
2018-08-19T15:01:19.612Z,48.60
2018-08-19T15:03:54.167Z,49.30
2018-08-19T15:06:23.871Z,48.70
2018-08-19T15:08:53.514Z,48.70
2018-08-19T15:11:23.205Z,47.20
2018-08-19T15:13:52.915Z,47.50
2018-08-19T15:16:22.512Z,48.20
2018-08-19T15:18:52.128Z,48.90
2018-08-19T15:21:21.833Z,47.70
2018-08-19T15:23:51.396Z,46.40
2018-08-19T15:26:21.036Z,46.90
2018-08-19T15:28:50.674Z,47.70
2018-08-19T15:31:25.467Z,48.40
2018-08-19T15:33:55.279Z,47.80
2018-08-19T15:36:24.942Z,48.00
2018-08-19T15:38:54.621Z,47.10
2018-08-19T15:41:24.261Z,46.20
2018-08-19T15:43:53.882Z,47.80
2018-08-19T15:46:30.843Z,47.30
2018-08-19T15:49:00.477Z,47.60
2018-08-19T15:51:30.561Z,47.40
2018-08-19T15:54:00.197Z,48.60
2018-08-19T15:56:29.803Z,47.40
2018-08-19T15:59:00.661Z,48.00
2018-08-19T16:01:32.039Z,47.40
2018-08-19T16:04:06.911Z,48.30
2018-08-19T16:06:36.702Z,48.60
2018-08-19T16:09:09.737Z,48.80
2018-08-19T16:11:39.584Z,49.20
2018-08-19T16:14:21.940Z,49.90
2018-08-19T16:16:52.128Z,48.80
2018-08-19T16:19:22.337Z,48.70
2018-08-19T16:21:54.435Z,49.20
2018-08-19T16:24:24.596Z,49.40
2018-08-19T16:26:54.812Z,50.30
2018-08-19T16:29:24.970Z,51.20
2018-08-19T16:31:55.212Z,51.00
2018-08-19T16:34:25.042Z,51.20
2018-08-19T16:36:54.834Z,51.90
2018-08-19T16:39:24.939Z,52.30
2018-08-19T16:41:54.751Z,52.50
2018-08-19T16:44:25.121Z,52.30
2018-08-19T16:46:56.184Z,51.70
2018-08-19T16:49:26.584Z,52.30
2018-08-19T16:51:57.038Z,51.80
2018-08-19T16:54:27.514Z,52.60
2018-08-19T16:56:57.940Z,52.20
2018-08-19T16:59:28.365Z,53.50
2018-08-19T17:01:58.816Z,53.10
2018-08-19T17:04:29.218Z,53.30
2018-08-19T17:06:59.631Z,53.20
2018-08-19T17:09:30.378Z,52.50
2018-08-19T17:12:00.795Z,51.90
2018-08-19T17:14:31.379Z,51.20
2018-08-19T17:17:01.790Z,51.80
2018-08-19T17:19:32.181Z,52.00
2018-08-19T17:22:08.373Z,52.20
2018-08-19T17:24:38.825Z,52.60
2018-08-19T17:27:12.711Z,52.90
2018-08-19T17:29:43.222Z,54.30
2018-08-19T17:32:13.702Z,55.90
2018-08-19T17:34:44.043Z,54.10
2018-08-19T17:37:14.358Z,56.30
2018-08-19T17:39:44.832Z,55.50
2018-08-19T17:42:15.091Z,55.80
2018-08-19T17:44:45.436Z,55.20
2018-08-19T17:47:15.763Z,56.60
2018-08-19T17:49:46.121Z,57.70
2018-08-19T17:52:16.662Z,57.50
2018-08-19T17:54:46.848Z,58.80
2018-08-19T17:57:17.088Z,59.10
2018-08-19T17:59:47.264Z,60.10
2018-08-19T18:02:20.594Z,60.70
2018-08-19T18:04:50.668Z,61.10
2018-08-19T18:07:23.802Z,61.80
2018-08-19T18:09:56.958Z,62.20
2018-08-19T18:12:26.945Z,62.40
2018-08-19T18:14:57.317Z,62.50
2018-08-19T18:17:27.419Z,63.30
2018-08-19T18:19:57.721Z,63.70
2018-08-19T18:22:28.060Z,63.90
2018-08-19T18:25:04.947Z,64.60
2018-08-19T18:27:35.367Z,64.30
2018-08-19T18:30:06.109Z,64.80
2018-08-19T18:32:36.391Z,64.40
2018-08-19T18:35:07.738Z,64.60
2018-08-19T18:37:38.206Z,64.70
2018-08-19T18:40:09.186Z,65.80
2018-08-19T18:42:41.848Z,65.00
2018-08-19T18:45:14.037Z,64.80
2018-08-19T18:47:50.201Z,64.70
2018-08-19T18:50:24.336Z,65.30
2018-08-19T18:52:55.204Z,65.70
2018-08-19T18:55:25.764Z,66.20
2018-08-19T18:58:01.080Z,67.20
2018-08-19T19:00:31.686Z,67.00
2018-08-19T19:03:02.370Z,66.80
2018-08-19T19:05:39.233Z,66.60
2018-08-19T19:08:14.265Z,66.00
2018-08-19T19:10:53.528Z,65.80
2018-08-19T19:13:25.105Z,65.50
2018-08-19T19:15:55.898Z,65.30
2018-08-19T19:18:26.430Z,65.40
2018-08-19T19:21:05.167Z,65.20
2018-08-19T19:23:41.911Z,65.10
2018-08-19T19:26:12.447Z,65.10
2018-08-19T19:28:42.881Z,65.00
2018-08-19T19:31:17.450Z,64.70
2018-08-19T19:33:48.432Z,64.40
2018-08-19T19:36:23.481Z,64.40
2018-08-19T19:38:59.467Z,64.10
2018-08-19T19:41:32.163Z,64.10
2018-08-19T19:44:36.119Z,64.10
2018-08-19T19:47:07.599Z,64.70
2018-08-19T19:49:47.238Z,64.40
2018-08-19T19:52:17.665Z,64.50
2018-08-19T19:54:48.531Z,64.80
2018-08-19T19:57:19.419Z,64.50
2018-08-19T19:59:50.578Z,64.50
2018-08-19T20:02:25.922Z,64.70
2018-08-19T20:04:56.353Z,64.80
2018-08-19T20:07:27.038Z,64.50
2018-08-19T20:09:57.477Z,64.60
2018-08-19T20:12:30.941Z,64.60
2018-08-19T20:15:02.681Z,64.30
2018-08-19T20:17:33.156Z,64.30
2018-08-19T20:20:03.740Z,63.90
2018-08-19T20:22:35.237Z,63.80
2018-08-19T20:25:06.135Z,64.50
2018-08-19T20:27:36.569Z,63.70
2018-08-19T20:30:07.638Z,64.00
2018-08-19T20:32:38.015Z,63.80
2018-08-19T20:35:08.625Z,63.50
2018-08-19T20:37:39.355Z,63.00
2018-08-19T20:40:09.958Z,63.40
2018-08-19T20:42:40.379Z,63.10
2018-08-19T20:45:10.845Z,63.20
2018-08-19T20:47:41.692Z,63.20
2018-08-19T20:50:12.197Z,63.60
2018-08-19T20:52:49.678Z,63.50
2018-08-19T20:55:20.004Z,63.60
2018-08-19T20:57:50.297Z,63.60
2018-08-19T21:00:20.576Z,63.60
2018-08-19T21:02:50.695Z,63.60
2018-08-19T21:05:20.841Z,63.80
2018-08-19T21:07:51.032Z,64.10
2018-08-19T21:10:20.832Z,64.00
2018-08-19T21:12:50.715Z,63.70
2018-08-19T21:15:24.485Z,63.70
2018-08-19T21:17:54.164Z,63.20
2018-08-19T21:20:23.743Z,63.30
2018-08-19T21:22:54.775Z,63.70
2018-08-19T21:25:24.674Z,63.20
2018-08-19T21:27:54.268Z,63.20
2018-08-19T21:30:24.165Z,63.70
2018-08-19T21:32:54.661Z,63.60
2018-08-19T21:35:24.255Z,63.70
2018-08-19T21:37:53.898Z,63.60
2018-08-19T21:40:33.633Z,63.80
2018-08-19T21:43:03.207Z,63.30
2018-08-19T21:45:33.001Z,62.80
2018-08-19T21:48:02.589Z,62.70
2018-08-19T21:50:32.229Z,62.40
2018-08-19T21:53:03.871Z,62.60
2018-08-19T21:55:40.906Z,62.50
2018-08-19T21:58:10.649Z,62.50
2018-08-19T22:00:57.784Z,62.60
2018-08-19T22:03:32.592Z,62.20
2018-08-19T22:06:04.858Z,62.40
2018-08-19T22:08:34.578Z,62.80
2018-08-19T22:11:04.448Z,62.10
2018-08-19T22:13:34.041Z,62.20
2018-08-19T22:16:03.733Z,61.70
2018-08-19T22:18:33.433Z,62.40
2018-08-19T22:21:14.817Z,62.20
2018-08-19T22:23:49.536Z,62.20
2018-08-19T22:26:20.285Z,62.40
2018-08-19T22:29:52.722Z,62.80
2018-08-19T22:32:22.407Z,63.10
2018-08-19T22:34:52.043Z,63.10
2018-08-19T22:37:21.713Z,63.50
2018-08-19T22:39:51.446Z,64.30
2018-08-19T22:42:21.006Z,64.40
2018-08-19T22:44:50.553Z,64.10
2018-08-19T22:47:20.193Z,64.40
2018-08-19T22:49:49.772Z,64.00
2018-08-19T22:52:21.940Z,64.10
2018-08-19T22:54:54.974Z,64.30
2018-08-19T22:57:24.658Z,64.50
2018-08-19T22:59:54.533Z,64.40
2018-08-19T23:02:24.504Z,64.40
2018-08-19T23:04:54.100Z,63.70
2018-08-19T23:07:23.701Z,63.90
2018-08-19T23:09:53.324Z,64.00
2018-08-19T23:12:22.919Z,63.00
2018-08-19T23:15:03.306Z,64.50
2018-08-19T23:17:33.014Z,64.00
2018-08-19T23:20:02.581Z,63.90
2018-08-19T23:22:32.281Z,63.50
2018-08-19T23:25:01.893Z,64.10
2018-08-19T23:27:31.426Z,64.10
2018-08-19T23:30:01.014Z,64.00
2018-08-19T23:32:30.764Z,64.10
2018-08-19T23:35:00.422Z,64.10
2018-08-19T23:37:30.025Z,64.40
2018-08-19T23:39:59.663Z,64.60
2018-08-19T23:42:35.623Z,64.00
2018-08-19T23:45:05.367Z,63.90
2018-08-19T23:47:34.962Z,64.40
2018-08-19T23:50:04.629Z,64.50
2018-08-19T23:52:34.269Z,64.30
2018-08-19T23:55:03.964Z,64.20
2018-08-19T23:57:33.543Z,64.00
